createdAt,value
2022-10-16T00:01:42.200Z,76.20
2022-10-16T00:04:45.536Z,76.10
2022-10-16T00:07:48.992Z,76.20
2022-10-16T00:10:54.468Z,76.40
2022-10-16T00:14:00.925Z,76.50
2022-10-16T00:17:03.967Z,76.50
2022-10-16T00:20:09.340Z,76.60
2022-10-16T00:23:13.239Z,76.90
2022-10-16T00:26:21.569Z,76.90
2022-10-16T00:29:24.510Z,77.50
2022-10-16T00:32:27.896Z,77.20
2022-10-16T00:35:33.844Z,77.40
2022-10-16T00:38:38.641Z,77.90
2022-10-16T00:41:44.409Z,78.00
2022-10-16T00:44:54.909Z,78.20
2022-10-16T00:47:59.451Z,78.10
2022-10-16T00:51:03.762Z,77.90
2022-10-16T00:54:14.941Z,77.90
2022-10-16T00:57:20.799Z,78.10
2022-10-16T01:00:28.732Z,78.00
2022-10-16T01:03:37.340Z,77.90
2022-10-16T01:06:57.902Z,77.70
2022-10-16T01:10:20.535Z,78.00
2022-10-16T01:13:32.302Z,77.70
2022-10-16T01:16:46.140Z,78.20
2022-10-16T01:20:15.696Z,77.90
2022-10-16T01:23:39.553Z,77.90
2022-10-16T01:27:07.086Z,77.50
2022-10-16T01:30:17.394Z,77.60
2022-10-16T01:33:26.753Z,77.20
2022-10-16T01:36:42.490Z,77.10
2022-10-16T01:39:51.268Z,77.40
2022-10-16T01:43:03.081Z,77.30
2022-10-16T01:46:07.654Z,77.60
2022-10-16T01:49:14.402Z,77.40
2022-10-16T01:52:27.530Z,77.60
2022-10-16T01:55:38.536Z,77.80
2022-10-16T01:58:49.637Z,77.50
2022-10-16T02:02:01.642Z,77.60
2022-10-16T02:05:16.895Z,77.50
2022-10-16T02:08:22.890Z,77.70
2022-10-16T02:11:26.258Z,77.60
2022-10-16T02:14:32.561Z,77.60
2022-10-16T02:17:36.018Z,77.80
2022-10-16T02:20:53.903Z,77.90
2022-10-16T02:24:15.151Z,78.30
2022-10-16T02:27:28.020Z,78.60
2022-10-16T02:30:39.805Z,78.20
2022-10-16T02:33:48.424Z,78.20
2022-10-16T02:36:54.301Z,78.30
2022-10-16T02:40:00.223Z,78.10
2022-10-16T02:43:08.787Z,78.00
2022-10-16T02:46:14.780Z,78.10
2022-10-16T02:49:19.413Z,78.00
2022-10-16T02:52:23.817Z,77.90
2022-10-16T02:55:30.030Z,77.80
2022-10-16T02:58:34.562Z,78.20
2022-10-16T03:01:38.872Z,78.10
2022-10-16T03:04:42.763Z,78.30
2022-10-16T03:07:45.681Z,78.20
2022-10-16T03:10:50.029Z,78.30
2022-10-16T03:13:53.553Z,78.60
2022-10-16T03:16:59.454Z,78.50
2022-10-16T03:20:02.489Z,78.80
2022-10-16T03:23:05.378Z,78.80
2022-10-16T03:26:08.678Z,78.80
2022-10-16T03:29:13.456Z,78.80
2022-10-16T03:32:18.420Z,79.10
2022-10-16T03:35:22.407Z,79.40
2022-10-16T03:38:25.639Z,79.70
2022-10-16T03:41:28.986Z,79.90
2022-10-16T03:44:34.075Z,80.10
2022-10-16T03:47:40.457Z,81.00
2022-10-16T03:50:43.708Z,80.20
2022-10-16T03:53:47.357Z,80.20
2022-10-16T03:56:50.929Z,80.30
2022-10-16T03:59:53.789Z,80.20
2022-10-16T04:02:58.353Z,80.20
2022-10-16T04:06:02.580Z,80.20
2022-10-16T04:09:06.704Z,80.10
2022-10-16T04:12:09.898Z,80.80
2022-10-16T04:15:13.860Z,79.70
2022-10-16T04:18:19.713Z,79.60
2022-10-16T04:21:23.261Z,79.50
2022-10-16T04:24:26.873Z,79.40
2022-10-16T04:27:32.622Z,79.40
2022-10-16T04:30:35.710Z,79.20
2022-10-16T04:33:41.025Z,79.10
2022-10-16T04:36:46.161Z,79.10
2022-10-16T04:39:50.937Z,79.00
2022-10-16T04:42:54.625Z,78.80
2022-10-16T04:45:57.485Z,78.70
2022-10-16T04:49:01.963Z,78.70
2022-10-16T04:52:05.521Z,78.50
2022-10-16T04:55:10.850Z,78.50
2022-10-16T04:58:17.580Z,78.50
2022-10-16T05:01:20.869Z,78.40
2022-10-16T05:04:25.994Z,78.10
2022-10-16T05:07:29.683Z,78.30
2022-10-16T05:10:32.682Z,78.30
2022-10-16T05:13:37.009Z,78.30
2022-10-16T05:16:39.991Z,78.10
2022-10-16T05:19:46.775Z,78.10
2022-10-16T05:22:50.666Z,77.90
2022-10-16T05:26:00.170Z,77.80
2022-10-16T05:29:04.399Z,77.70
2022-10-16T05:32:07.457Z,77.70
2022-10-16T05:35:12.828Z,77.60
2022-10-16T05:38:17.957Z,77.60
2022-10-16T05:41:22.625Z,77.90
2022-10-16T05:44:25.652Z,77.50
2022-10-16T05:47:29.802Z,77.60
2022-10-16T05:50:41.973Z,77.50
2022-10-16T05:53:46.192Z,77.30
2022-10-16T05:56:49.043Z,77.40
2022-10-16T05:59:53.170Z,77.30
2022-10-16T06:02:56.695Z,77.00
2022-10-16T06:06:12.168Z,77.10
2022-10-16T06:09:15.946Z,76.90
2022-10-16T06:12:20.071Z,77.40
2022-10-16T06:15:23.149Z,76.80
2022-10-16T06:18:26.183Z,76.70
2022-10-16T06:21:32.618Z,76.40
2022-10-16T06:24:36.075Z,76.10
2022-10-16T06:27:41.655Z,76.10
2022-10-16T06:30:45.446Z,76.10
2022-10-16T06:33:54.232Z,76.20
2022-10-16T06:36:58.837Z,76.20
2022-10-16T06:40:01.946Z,76.20
2022-10-16T06:43:05.594Z,76.30
2022-10-16T06:46:13.540Z,76.30
2022-10-16T06:49:22.438Z,76.30
2022-10-16T06:52:31.109Z,76.50
2022-10-16T06:55:35.009Z,76.50
2022-10-16T06:58:39.933Z,76.50
2022-10-16T07:01:43.050Z,76.60
2022-10-16T07:04:47.059Z,76.80
2022-10-16T07:07:52.882Z,76.80
2022-10-16T07:11:01.830Z,77.20
2022-10-16T07:14:06.749Z,76.90
2022-10-16T07:17:09.622Z,77.50
2022-10-16T07:20:12.632Z,77.00
2022-10-16T07:23:18.344Z,77.10
2022-10-16T07:26:22.332Z,77.10
2022-10-16T07:29:25.806Z,76.90
2022-10-16T07:32:30.896Z,76.80
2022-10-16T07:35:35.174Z,76.80
2022-10-16T07:38:40.731Z,76.70
2022-10-16T07:41:46.012Z,76.30
2022-10-16T07:44:50.805Z,76.50
2022-10-16T07:47:53.680Z,75.90
2022-10-16T07:51:01.199Z,75.90
2022-10-16T07:54:06.634Z,75.40
2022-10-16T07:57:09.501Z,75.20
2022-10-16T08:00:14.725Z,75.10
2022-10-16T08:03:18.206Z,74.50
2022-10-16T08:06:27.638Z,74.50
2022-10-16T08:09:34.043Z,74.50
2022-10-16T08:12:39.707Z,74.60
2022-10-16T08:15:43.921Z,74.80
2022-10-16T08:18:52.032Z,74.90
2022-10-16T08:21:55.392Z,74.50
2022-10-16T08:25:01.025Z,74.00
2022-10-16T08:28:07.824Z,73.10
2022-10-16T08:31:14.888Z,72.50
2022-10-16T08:34:18.090Z,72.50
2022-10-16T08:37:21.110Z,72.20
2022-10-16T08:40:29.637Z,72.30
2022-10-16T08:43:54.139Z,71.50
2022-10-16T08:47:16.123Z,71.30
2022-10-16T08:50:27.987Z,71.40
2022-10-16T08:53:45.051Z,71.80
2022-10-16T08:56:50.906Z,71.80
2022-10-16T08:59:55.672Z,71.80
2022-10-16T09:03:14.194Z,71.80
2022-10-16T09:06:39.338Z,71.00
2022-10-16T09:10:02.612Z,70.80
2022-10-16T09:13:23.121Z,70.00
2022-10-16T09:16:38.081Z,69.30
2022-10-16T09:19:47.944Z,69.60
2022-10-16T09:22:57.209Z,69.40
2022-10-16T09:26:03.265Z,68.90
2022-10-16T09:29:13.219Z,68.80
2022-10-16T09:32:21.831Z,68.60
2022-10-16T09:35:35.583Z,68.30
2022-10-16T09:38:39.743Z,67.80
2022-10-16T09:41:47.553Z,67.90
2022-10-16T09:44:54.937Z,67.10
2022-10-16T09:47:58.780Z,67.40
2022-10-16T09:51:06.186Z,67.40
2022-10-16T09:54:18.766Z,67.40
2022-10-16T09:57:23.986Z,66.80
2022-10-16T10:00:30.893Z,67.50
2022-10-16T10:03:42.079Z,66.40
2022-10-16T10:06:50.015Z,66.00
2022-10-16T10:09:53.102Z,66.20
2022-10-16T10:12:58.949Z,66.30
2022-10-16T10:16:03.608Z,66.00
2022-10-16T10:19:08.304Z,65.90
2022-10-16T10:22:30.674Z,65.70
2022-10-16T10:25:55.858Z,63.90
2022-10-16T10:29:15.332Z,63.80
2022-10-16T10:32:39.481Z,64.30
2022-10-16T10:35:52.656Z,63.90
2022-10-16T10:39:04.136Z,63.90
2022-10-16T10:42:24.139Z,64.00
2022-10-16T10:45:43.634Z,63.10
2022-10-16T10:49:22.152Z,63.50
2022-10-16T10:52:44.151Z,62.70
2022-10-16T10:55:55.422Z,62.70
2022-10-16T10:59:36.111Z,62.70
2022-10-16T11:02:46.954Z,61.30
2022-10-16T11:05:57.840Z,62.00
2022-10-16T11:09:14.068Z,61.70
2022-10-16T11:12:23.930Z,61.90
2022-10-16T11:15:37.281Z,61.70
2022-10-16T11:18:53.127Z,61.40
2022-10-16T11:22:09.404Z,61.10
2022-10-16T11:25:23.358Z,60.30
2022-10-16T11:28:34.711Z,60.80
2022-10-16T11:31:44.807Z,60.40
2022-10-16T11:34:55.322Z,60.50
2022-10-16T11:38:09.843Z,60.60
2022-10-16T11:41:24.191Z,60.50
2022-10-16T11:44:43.780Z,60.60
2022-10-16T11:47:59.593Z,59.50
2022-10-16T11:51:16.863Z,60.60
2022-10-16T11:54:35.113Z,59.90
2022-10-16T11:57:47.675Z,59.80
2022-10-16T12:01:02.058Z,59.90
2022-10-16T12:04:17.946Z,59.40
2022-10-16T12:07:34.535Z,59.10
2022-10-16T12:10:44.369Z,60.10
2022-10-16T12:13:49.120Z,60.10
2022-10-16T12:16:59.264Z,60.00
2022-10-16T12:20:27.725Z,59.50
2022-10-16T12:23:30.767Z,60.00
2022-10-16T12:26:43.963Z,59.70
2022-10-16T12:29:47.326Z,59.90
2022-10-16T12:32:58.111Z,60.00
2022-10-16T12:36:08.009Z,59.20
2022-10-16T12:39:25.607Z,59.10
2022-10-16T12:42:37.048Z,58.80
2022-10-16T12:45:41.024Z,58.80
2022-10-16T12:49:05.251Z,59.70
2022-10-16T12:52:29.469Z,59.70
2022-10-16T12:55:46.266Z,58.80
2022-10-16T12:59:10.201Z,58.90
2022-10-16T13:02:57.043Z,58.80
2022-10-16T13:06:31.021Z,58.90
2022-10-16T13:09:57.312Z,59.40
2022-10-16T13:13:40.391Z,59.30
2022-10-16T13:17:01.695Z,59.10
2022-10-16T13:20:22.459Z,59.30
2022-10-16T13:23:37.279Z,59.40
2022-10-16T13:26:53.326Z,59.50
2022-10-16T13:30:10.229Z,59.60
2022-10-16T13:33:23.919Z,59.50
2022-10-16T13:36:30.688Z,59.60
2022-10-16T13:39:34.755Z,60.00
2022-10-16T13:42:39.415Z,61.40
2022-10-16T13:45:42.411Z,61.50
2022-10-16T13:49:00.012Z,61.90
2022-10-16T13:52:03.159Z,62.40
2022-10-16T13:55:12.131Z,62.70
2022-10-16T13:58:18.582Z,63.10
2022-10-16T14:01:30.170Z,63.70
2022-10-16T14:04:42.009Z,64.10
2022-10-16T14:07:45.626Z,64.90
2022-10-16T14:10:54.256Z,65.10
2022-10-16T14:14:00.051Z,65.60
2022-10-16T14:17:06.398Z,65.70
2022-10-16T14:20:18.394Z,66.00
2022-10-16T14:23:31.011Z,66.50
2022-10-16T14:26:50.671Z,66.50
2022-10-16T14:30:18.445Z,66.90
2022-10-16T14:33:35.130Z,66.80
2022-10-16T14:36:45.051Z,66.50
2022-10-16T14:39:52.308Z,66.30
2022-10-16T14:42:55.889Z,65.90
2022-10-16T14:46:00.172Z,66.00
2022-10-16T14:49:16.643Z,66.00
2022-10-16T14:52:22.167Z,65.80
2022-10-16T14:55:27.131Z,65.50
2022-10-16T14:58:30.639Z,65.40
2022-10-16T15:01:37.386Z,65.30
2022-10-16T15:04:41.311Z,65.10
2022-10-16T15:07:47.879Z,64.90
2022-10-16T15:10:51.743Z,64.40
2022-10-16T15:13:54.571Z,64.40
2022-10-16T15:17:02.577Z,64.40
2022-10-16T15:20:08.637Z,64.00
2022-10-16T15:23:19.050Z,64.00
2022-10-16T15:26:23.303Z,63.30
2022-10-16T15:29:27.229Z,63.60
2022-10-16T15:32:30.170Z,63.20
2022-10-16T15:35:33.221Z,63.50
2022-10-16T15:38:39.577Z,63.40
2022-10-16T15:41:43.433Z,63.30
2022-10-16T15:44:47.578Z,63.30
2022-10-16T15:47:52.914Z,63.30
2022-10-16T15:50:58.501Z,63.30
2022-10-16T15:54:06.319Z,63.30
2022-10-16T15:57:10.606Z,63.30
2022-10-16T16:00:19.668Z,63.30
2022-10-16T16:03:24.935Z,63.50
2022-10-16T16:06:28.955Z,63.50
2022-10-16T16:09:33.552Z,63.50
2022-10-16T16:12:38.810Z,64.00
2022-10-16T16:15:43.890Z,63.50
2022-10-16T16:18:47.403Z,63.60
2022-10-16T16:21:51.946Z,63.60
2022-10-16T16:24:56.475Z,63.50
2022-10-16T16:28:00.643Z,63.60
2022-10-16T16:31:05.419Z,63.70
2022-10-16T16:34:08.950Z,63.60
2022-10-16T16:37:11.888Z,63.50
2022-10-16T16:40:17.350Z,63.50
2022-10-16T16:43:21.797Z,63.40
2022-10-16T16:46:24.790Z,63.40
2022-10-16T16:49:29.281Z,63.50
2022-10-16T16:52:33.302Z,63.50
2022-10-16T16:55:38.714Z,63.50
2022-10-16T16:58:42.554Z,63.60
2022-10-16T17:01:46.676Z,63.70
2022-10-16T17:04:51.685Z,63.80
2022-10-16T17:07:54.755Z,63.90
2022-10-16T17:11:01.045Z,64.00
2022-10-16T17:14:05.410Z,64.20
2022-10-16T17:17:11.253Z,64.30
2022-10-16T17:20:14.372Z,64.40
2022-10-16T17:23:21.551Z,64.50
2022-10-16T17:26:26.929Z,64.60
2022-10-16T17:29:30.737Z,64.70
2022-10-16T17:32:35.447Z,64.80
2022-10-16T17:35:40.080Z,64.90
2022-10-16T17:38:45.597Z,65.00
2022-10-16T17:41:54.812Z,65.10
2022-10-16T17:44:59.463Z,65.30
2022-10-16T17:48:04.295Z,65.20
2022-10-16T17:51:09.361Z,65.40
2022-10-16T17:54:16.406Z,65.40
2022-10-16T17:57:23.491Z,65.50
2022-10-16T18:00:27.513Z,65.70
2022-10-16T18:03:30.659Z,66.20
2022-10-16T18:06:34.733Z,65.90
2022-10-16T18:09:42.613Z,66.00
2022-10-16T18:13:05.356Z,66.00
2022-10-16T18:16:16.717Z,66.00
2022-10-16T18:19:23.697Z,65.80
2022-10-16T18:22:28.113Z,66.20
2022-10-16T18:25:36.615Z,66.20
2022-10-16T18:28:43.127Z,66.20
2022-10-16T18:31:50.567Z,66.30
2022-10-16T18:34:54.144Z,66.30
2022-10-16T18:38:00.626Z,66.40
2022-10-16T18:41:05.492Z,66.40
2022-10-16T18:44:13.203Z,66.40
2022-10-16T18:47:18.009Z,66.40
2022-10-16T18:50:21.859Z,66.40
2022-10-16T18:53:24.913Z,66.40
2022-10-16T18:56:32.807Z,66.40
2022-10-16T18:59:38.637Z,66.40
2022-10-16T19:02:44.136Z,66.40
2022-10-16T19:05:47.507Z,66.50
2022-10-16T19:08:51.213Z,66.40
2022-10-16T19:11:54.402Z,66.40
2022-10-16T19:14:58.717Z,66.40
2022-10-16T19:18:02.013Z,66.40
2022-10-16T19:24:15.296Z,66.40
2022-10-16T19:27:18.863Z,66.50
2022-10-16T19:30:25.243Z,66.60
2022-10-16T19:33:29.726Z,66.70
2022-10-16T19:36:37.649Z,66.80
2022-10-16T19:39:41.178Z,67.00
2022-10-16T19:42:45.323Z,67.00
2022-10-16T19:45:50.749Z,67.00
2022-10-16T19:48:56.997Z,67.20
2022-10-16T19:52:00.765Z,67.30
2022-10-16T19:55:03.725Z,67.30
2022-10-16T19:58:08.230Z,67.60
2022-10-16T20:01:15.798Z,67.50
2022-10-16T20:04:19.612Z,67.60
2022-10-16T20:07:24.747Z,67.60
2022-10-16T20:10:27.887Z,67.60
2022-10-16T20:13:32.061Z,67.80
2022-10-16T20:16:36.531Z,67.90
2022-10-16T20:19:40.493Z,68.30
2022-10-16T20:22:43.390Z,67.90
2022-10-16T20:25:46.716Z,68.10
2022-10-16T20:28:50.593Z,68.40
2022-10-16T20:31:54.841Z,68.40
2022-10-16T20:34:58.602Z,68.40
2022-10-16T20:38:03.009Z,68.80
2022-10-16T20:41:10.690Z,68.10
2022-10-16T20:44:16.290Z,68.60
2022-10-16T20:47:22.568Z,68.30
2022-10-16T20:50:30.422Z,68.40
2022-10-16T20:53:36.124Z,68.50
2022-10-16T20:56:44.687Z,68.50
2022-10-16T20:59:51.300Z,68.80
2022-10-16T21:02:57.683Z,68.80
2022-10-16T21:06:03.651Z,68.90
2022-10-16T21:09:11.027Z,68.80
2022-10-16T21:12:14.902Z,69.10
2022-10-16T21:15:18.088Z,69.00
2022-10-16T21:18:23.267Z,69.00
2022-10-16T21:21:30.744Z,69.20
2022-10-16T21:24:34.476Z,69.30
2022-10-16T21:27:38.839Z,69.30
2022-10-16T21:30:42.511Z,69.40
2022-10-16T21:33:49.502Z,69.60
2022-10-16T21:36:53.302Z,69.60
2022-10-16T21:39:57.106Z,69.20
2022-10-16T21:43:01.785Z,69.10
2022-10-16T21:46:04.690Z,68.90
2022-10-16T21:49:15.935Z,68.90
2022-10-16T21:52:19.950Z,69.10
2022-10-16T21:55:23.613Z,69.00
2022-10-16T21:58:26.795Z,69.10
2022-10-16T22:01:30.911Z,69.20
2022-10-16T22:04:36.930Z,69.40
2022-10-16T22:07:41.434Z,70.00
2022-10-16T22:10:44.452Z,69.50
2022-10-16T22:13:50.224Z,69.90
2022-10-16T22:16:56.032Z,69.80
2022-10-16T22:20:01.723Z,70.10
2022-10-16T22:23:04.602Z,70.10
2022-10-16T22:26:12.591Z,70.10
2022-10-16T22:29:17.710Z,70.40
2022-10-16T22:32:21.535Z,70.80
2022-10-16T22:35:26.670Z,70.40
2022-10-16T22:38:32.405Z,70.40
2022-10-16T22:41:36.941Z,70.30
2022-10-16T22:44:45.916Z,70.40
2022-10-16T22:47:49.141Z,70.80
2022-10-16T22:50:54.816Z,70.60
2022-10-16T22:53:59.938Z,70.70
2022-10-16T22:57:03.679Z,71.70
2022-10-16T23:00:09.512Z,70.60
2022-10-16T23:03:14.913Z,70.60
2022-10-16T23:06:19.855Z,70.40
2022-10-16T23:09:23.737Z,70.60
2022-10-16T23:12:26.975Z,70.60
2022-10-16T23:15:30.049Z,70.40
2022-10-16T23:18:37.907Z,70.60
2022-10-16T23:21:43.187Z,70.80
2022-10-16T23:24:47.106Z,70.70
2022-10-16T23:27:50.100Z,70.90
2022-10-16T23:30:53.956Z,71.00
2022-10-16T23:33:58.374Z,71.20
2022-10-16T23:37:06.479Z,71.10
2022-10-16T23:40:10.768Z,71.00
2022-10-16T23:43:13.954Z,70.80
2022-10-16T23:46:18.292Z,71.50
2022-10-16T23:49:21.996Z,70.50
2022-10-16T23:52:27.186Z,70.50
2022-10-16T23:55:30.156Z,70.80
2022-10-16T23:58:33.071Z,70.60
